KCDJ

Chillicothe Agri-Science Center Airport

Chillicothe, Missouri, USA
METAR KCDJ 201552Z AUTO 20008KT 22/19 A2970 RMK AO1 SLP047 T02170194
Observed Flight Rules
Aug-20 @ 15:52 UTC (31 minutes ago)
Wind
200° at 8 knots
Temperatures Readings
Current 22°C / 72°F
Dewpoint 19°C / 66°F
Humidity 83%
Altimeter 29.7" Hg
Pressure 1004.7 hPa
Elevation 234
METAR KCDJ 201552Z AUTO 20008KT 22/19 A2970 RMK AO1 SLP047 T02170194
Observed Flight Rules
Aug-20 @ 15:52 UTC
(31 minutes ago)
Wind
200° at 8 knots
Temperature Dewpoint
22°C / 72°F 19°C / 66°F
Humidity Altimeter Pressure
83% 29.7" Hg 1004.7 hPa